Terminal Aerodrome Forecast
Issued by NWS Cleveland, OH

Home | Current Version | Previous Version | Graphics & Text | Print | Product List | Glossary On
Versions: 1 2 3 4 5 6 7 8 9 10 11 12 13 14 15 16 17 18 19 20 21 22 23 24 25 26 27 28 29 30 31 32 33 34 35 36 37
000
FTUS41 KCLE 231200 AAA
TAFCLE
TAF AMD
KCLE 231223Z 2312/2418 34014KT P6SM OVC022
     FM231500 33012KT P6SM SCT025 BKN035
      TEMPO 2315/2317 BKN025
     FM231900 36008KT P6SM SCT250
     FM240300 VRB03KT P6SM SCT100 BKN250=

USA.gov is the U.S. government's official web portal to all federal, state and local government web resources and services.